sensor_id;sensor_type;location;lat;lon;timestamp;P1;durP1;ratioP1;P2;durP2;ratioP2
13439;SDS011;6792;57.698;11.946;2024-02-15T00:03:09;13.30;;;7.47;;
13439;SDS011;6792;57.698;11.946;2024-02-15T00:06:34;11.77;;;7.20;;
13439;SDS011;6792;57.698;11.946;2024-02-15T00:09:21;10.37;;;6.50;;
13439;SDS011;6792;57.698;11.946;2024-02-15T00:14:43;13.00;;;7.77;;
13439;SDS011;6792;57.698;11.946;2024-02-15T00:23:13;13.00;;;7.87;;
13439;SDS011;6792;57.698;11.946;2024-02-15T00:25:43;12.20;;;7.23;;
13439;SDS011;6792;57.698;11.946;2024-02-15T00:28:13;13.10;;;7.97;;
13439;SDS011;6792;57.698;11.946;2024-02-15T00:30:43;12.33;;;6.70;;
13439;SDS011;6792;57.698;11.946;2024-02-15T00:33:14;11.03;;;7.10;;
13439;SDS011;6792;57.698;11.946;2024-02-15T00:35:44;10.07;;;6.43;;
13439;SDS011;6792;57.698;11.946;2024-02-15T00:38:19;11.50;;;7.23;;
13439;SDS011;6792;57.698;11.946;2024-02-15T00:40:49;11.13;;;7.13;;
13439;SDS011;6792;57.698;11.946;2024-02-15T00:43:22;11.73;;;6.87;;
13439;SDS011;6792;57.698;11.946;2024-02-15T00:45:52;10.93;;;6.93;;
13439;SDS011;6792;57.698;11.946;2024-02-15T00:51:20;11.33;;;7.10;;
13439;SDS011;6792;57.698;11.946;2024-02-15T00:53:50;12.67;;;7.13;;
13439;SDS011;6792;57.698;11.946;2024-02-15T00:56:20;10.40;;;6.80;;
13439;SDS011;6792;57.698;11.946;2024-02-15T00:58:50;10.87;;;6.57;;
13439;SDS011;6792;57.698;11.946;2024-02-15T01:01:20;12.77;;;6.80;;
13439;SDS011;6792;57.698;11.946;2024-02-15T01:03:52;11.70;;;7.20;;
13439;SDS011;6792;57.698;11.946;2024-02-15T01:06:30;11.73;;;7.50;;
13439;SDS011;6792;57.698;11.946;2024-02-15T01:09:00;12.17;;;7.37;;
13439;SDS011;6792;57.698;11.946;2024-02-15T01:11:41;12.90;;;7.20;;
13439;SDS011;6792;57.698;11.946;2024-02-15T01:14:11;10.70;;;6.67;;
13439;SDS011;6792;57.698;11.946;2024-02-15T01:16:42;10.57;;;6.20;;
13439;SDS011;6792;57.698;11.946;2024-02-15T01:19:23;11.33;;;7.20;;
13439;SDS011;6792;57.698;11.946;2024-02-15T01:31:31;15.33;;;7.63;;
13439;SDS011;6792;57.698;11.946;2024-02-15T01:34:01;12.90;;;6.80;;
13439;SDS011;6792;57.698;11.946;2024-02-15T01:36:32;8.73;;;6.00;;
13439;SDS011;6792;57.698;11.946;2024-02-15T01:39:06;12.70;;;6.97;;
13439;SDS011;6792;57.698;11.946;2024-02-15T01:41:39;11.93;;;7.40;;
13439;SDS011;6792;57.698;11.946;2024-02-15T02:03:50;10.23;;;6.37;;
13439;SDS011;6792;57.698;11.946;2024-02-15T02:06:20;10.93;;;5.37;;
13439;SDS011;6792;57.698;11.946;2024-02-15T02:08:51;8.77;;;5.83;;
13439;SDS011;6792;57.698;11.946;2024-02-15T02:21:05;8.10;;;5.73;;
13439;SDS011;6792;57.698;11.946;2024-02-15T02:23:37;8.40;;;5.60;;
13439;SDS011;6792;57.698;11.946;2024-02-15T02:29:02;7.57;;;6.00;;
13439;SDS011;6792;57.698;11.946;2024-02-15T02:31:33;9.70;;;5.73;;
13439;SDS011;6792;57.698;11.946;2024-02-15T02:34:03;9.53;;;6.17;;
13439;SDS011;6792;57.698;11.946;2024-02-15T02:36:45;7.50;;;5.37;;
13439;SDS011;6792;57.698;11.946;2024-02-15T02:42:09;10.20;;;5.60;;
13439;SDS011;6792;57.698;11.946;2024-02-15T02:44:49;7.70;;;5.17;;
13439;SDS011;6792;57.698;11.946;2024-02-15T02:47:19;7.93;;;5.47;;
13439;SDS011;6792;57.698;11.946;2024-02-15T02:49:48;7.50;;;5.40;;
13439;SDS011;6792;57.698;11.946;2024-02-15T02:52:18;8.80;;;5.87;;
13439;SDS011;6792;57.698;11.946;2024-02-15T02:54:48;7.63;;;4.90;;
13439;SDS011;6792;57.698;11.946;2024-02-15T02:57:18;5.67;;;4.83;;
13439;SDS011;6792;57.698;11.946;2024-02-15T02:59:48;6.83;;;5.43;;
13439;SDS011;6792;57.698;11.946;2024-02-15T03:02:18;7.43;;;4.83;;
13439;SDS011;6792;57.698;11.946;2024-02-15T03:04:49;6.47;;;4.83;;
13439;SDS011;6792;57.698;11.946;2024-02-15T03:07:20;7.33;;;5.10;;
13439;SDS011;6792;57.698;11.946;2024-02-15T03:09:50;9.00;;;4.97;;
13439;SDS011;6792;57.698;11.946;2024-02-15T03:12:19;8.50;;;5.20;;
13439;SDS011;6792;57.698;11.946;2024-02-15T03:14:49;8.23;;;5.00;;
13439;SDS011;6792;57.698;11.946;2024-02-15T03:17:20;6.57;;;4.57;;
13439;SDS011;6792;57.698;11.946;2024-02-15T03:19:53;5.90;;;4.40;;
13439;SDS011;6792;57.698;11.946;2024-02-15T03:22:24;8.70;;;5.23;;
13439;SDS011;6792;57.698;11.946;2024-02-15T03:24:56;6.10;;;4.63;;
13439;SDS011;6792;57.698;11.946;2024-02-15T03:30:02;8.10;;;5.57;;
13439;SDS011;6792;57.698;11.946;2024-02-15T03:32:33;8.33;;;5.17;;
13439;SDS011;6792;57.698;11.946;2024-02-15T03:35:03;7.97;;;5.37;;
13439;SDS011;6792;57.698;11.946;2024-02-15T03:37:34;7.33;;;5.23;;
13439;SDS011;6792;57.698;11.946;2024-02-15T03:40:08;7.40;;;5.73;;
13439;SDS011;6792;57.698;11.946;2024-02-15T03:42:38;6.43;;;5.03;;
13439;SDS011;6792;57.698;11.946;2024-02-15T03:45:09;6.93;;;5.03;;
13439;SDS011;6792;57.698;11.946;2024-02-15T03:47:39;7.10;;;5.17;;
13439;SDS011;6792;57.698;11.946;2024-02-15T03:50:09;7.60;;;5.27;;
13439;SDS011;6792;57.698;11.946;2024-02-15T03:52:43;5.70;;;4.70;;
13439;SDS011;6792;57.698;11.946;2024-02-15T03:55:14;6.23;;;4.93;;
13439;SDS011;6792;57.698;11.946;2024-02-15T03:58:16;6.40;;;4.87;;
13439;SDS011;6792;57.698;11.946;2024-02-15T04:00:49;8.13;;;5.50;;
13439;SDS011;6792;57.698;11.946;2024-02-15T04:03:34;9.13;;;5.67;;
13439;SDS011;6792;57.698;11.946;2024-02-15T04:06:05;7.57;;;6.13;;
13439;SDS011;6792;57.698;11.946;2024-02-15T04:08:38;6.43;;;5.03;;
13439;SDS011;6792;57.698;11.946;2024-02-15T04:11:39;7.10;;;5.30;;
13439;SDS011;6792;57.698;11.946;2024-02-15T04:14:08;7.97;;;5.73;;
13439;SDS011;6792;57.698;11.946;2024-02-15T04:16:38;7.83;;;5.83;;
13439;SDS011;6792;57.698;11.946;2024-02-15T04:19:08;6.70;;;5.40;;
13439;SDS011;6792;57.698;11.946;2024-02-15T04:21:37;9.27;;;5.70;;
13439;SDS011;6792;57.698;11.946;2024-02-15T04:24:07;7.90;;;5.57;;
13439;SDS011;6792;57.698;11.946;2024-02-15T04:29:47;7.53;;;5.47;;
13439;SDS011;6792;57.698;11.946;2024-02-15T04:32:46;7.77;;;5.90;;
13439;SDS011;6792;57.698;11.946;2024-02-15T04:35:15;9.27;;;6.37;;
13439;SDS011;6792;57.698;11.946;2024-02-15T04:37:53;8.17;;;5.70;;
13439;SDS011;6792;57.698;11.946;2024-02-15T04:40:24;7.87;;;5.40;;
13439;SDS011;6792;57.698;11.946;2024-02-15T04:42:54;7.93;;;5.77;;
13439;SDS011;6792;57.698;11.946;2024-02-15T04:45:25;8.53;;;6.00;;
13439;SDS011;6792;57.698;11.946;2024-02-15T04:47:56;8.33;;;6.77;;
13439;SDS011;6792;57.698;11.946;2024-02-15T04:50:28;8.67;;;6.33;;
13439;SDS011;6792;57.698;11.946;2024-02-15T04:52:58;11.10;;;6.33;;
13439;SDS011;6792;57.698;11.946;2024-02-15T04:55:36;11.33;;;6.57;;
13439;SDS011;6792;57.698;11.946;2024-02-15T04:58:31;8.97;;;6.60;;
13439;SDS011;6792;57.698;11.946;2024-02-15T05:01:21;11.60;;;6.80;;
13439;SDS011;6792;57.698;11.946;2024-02-15T05:04:17;10.37;;;6.57;;
13439;SDS011;6792;57.698;11.946;2024-02-15T05:06:46;8.83;;;6.07;;
13439;SDS011;6792;57.698;11.946;2024-02-15T05:09:16;7.93;;;5.93;;
13439;SDS011;6792;57.698;11.946;2024-02-15T05:11:46;9.40;;;6.20;;
13439;SDS011;6792;57.698;11.946;2024-02-15T05:14:17;11.97;;;6.87;;
13439;SDS011;6792;57.698;11.946;2024-02-15T05:16:58;8.87;;;6.30;;
13439;SDS011;6792;57.698;11.946;2024-02-15T05:22:39;8.37;;;5.70;;
13439;SDS011;6792;57.698;11.946;2024-02-15T05:25:12;8.57;;;6.13;;
13439;SDS011;6792;57.698;11.946;2024-02-15T05:27:52;9.83;;;6.40;;
13439;SDS011;6792;57.698;11.946;2024-02-15T05:30:25;8.90;;;5.93;;
13439;SDS011;6792;57.698;11.946;2024-02-15T05:32:57;10.40;;;6.07;;
13439;SDS011;6792;57.698;11.946;2024-02-15T05:39:29;10.53;;;6.63;;
13439;SDS011;6792;57.698;11.946;2024-02-15T05:42:10;9.87;;;6.97;;
13439;SDS011;6792;57.698;11.946;2024-02-15T05:44:41;9.20;;;6.63;;
13439;SDS011;6792;57.698;11.946;2024-02-15T05:47:10;9.67;;;6.53;;
13439;SDS011;6792;57.698;11.946;2024-02-15T05:49:40;9.30;;;6.17;;
13439;SDS011;6792;57.698;11.946;2024-02-15T05:52:10;8.50;;;6.50;;
13439;SDS011;6792;57.698;11.946;2024-02-15T05:54:40;9.53;;;7.23;;
13439;SDS011;6792;57.698;11.946;2024-02-15T05:57:09;11.70;;;7.73;;
13439;SDS011;6792;57.698;11.946;2024-02-15T05:59:39;10.23;;;6.63;;
13439;SDS011;6792;57.698;11.946;2024-02-15T06:02:09;10.60;;;7.00;;
13439;SDS011;6792;57.698;11.946;2024-02-15T06:04:38;9.40;;;6.23;;
13439;SDS011;6792;57.698;11.946;2024-02-15T06:07:09;10.67;;;6.77;;
13439;SDS011;6792;57.698;11.946;2024-02-15T06:09:39;10.53;;;6.80;;
13439;SDS011;6792;57.698;11.946;2024-02-15T06:12:08;10.07;;;6.40;;
13439;SDS011;6792;57.698;11.946;2024-02-15T06:14:38;12.03;;;7.70;;
13439;SDS011;6792;57.698;11.946;2024-02-15T06:17:07;9.60;;;6.80;;
13439;SDS011;6792;57.698;11.946;2024-02-15T06:19:37;11.10;;;7.17;;
13439;SDS011;6792;57.698;11.946;2024-02-15T06:22:06;10.07;;;7.03;;
13439;SDS011;6792;57.698;11.946;2024-02-15T06:24:35;9.97;;;6.80;;
13439;SDS011;6792;57.698;11.946;2024-02-15T06:27:04;10.80;;;7.33;;
13439;SDS011;6792;57.698;11.946;2024-02-15T06:29:33;10.00;;;6.63;;
13439;SDS011;6792;57.698;11.946;2024-02-15T06:32:30;10.03;;;6.97;;
13439;SDS011;6792;57.698;11.946;2024-02-15T06:35:17;10.63;;;6.80;;
13439;SDS011;6792;57.698;11.946;2024-02-15T06:38:06;8.60;;;6.73;;
13439;SDS011;6792;57.698;11.946;2024-02-15T06:40:53;10.20;;;6.83;;
13439;SDS011;6792;57.698;11.946;2024-02-15T06:43:22;9.80;;;6.87;;
13439;SDS011;6792;57.698;11.946;2024-02-15T06:45:52;10.30;;;7.10;;
13439;SDS011;6792;57.698;11.946;2024-02-15T06:48:21;12.53;;;7.37;;
13439;SDS011;6792;57.698;11.946;2024-02-15T06:50:51;9.57;;;6.63;;
13439;SDS011;6792;57.698;11.946;2024-02-15T06:53:30;10.07;;;6.80;;
13439;SDS011;6792;57.698;11.946;2024-02-15T06:55:59;13.20;;;7.20;;
13439;SDS011;6792;57.698;11.946;2024-02-15T06:58:30;9.33;;;6.33;;
13439;SDS011;6792;57.698;11.946;2024-02-15T07:01:10;10.17;;;6.63;;
13439;SDS011;6792;57.698;11.946;2024-02-15T07:03:50;10.53;;;6.77;;
13439;SDS011;6792;57.698;11.946;2024-02-15T07:09:18;9.10;;;6.60;;
13439;SDS011;6792;57.698;11.946;2024-02-15T07:11:49;11.83;;;7.10;;
13439;SDS011;6792;57.698;11.946;2024-02-15T07:14:18;9.47;;;6.83;;
13439;SDS011;6792;57.698;11.946;2024-02-15T07:16:48;10.17;;;6.00;;
13439;SDS011;6792;57.698;11.946;2024-02-15T07:19:19;9.57;;;6.27;;
13439;SDS011;6792;57.698;11.946;2024-02-15T07:21:48;9.90;;;7.20;;
13439;SDS011;6792;57.698;11.946;2024-02-15T07:24:17;10.90;;;6.40;;
13439;SDS011;6792;57.698;11.946;2024-02-15T07:26:46;9.63;;;6.70;;
13439;SDS011;6792;57.698;11.946;2024-02-15T07:29:23;10.10;;;6.90;;
13439;SDS011;6792;57.698;11.946;2024-02-15T07:39:14;10.27;;;7.03;;
13439;SDS011;6792;57.698;11.946;2024-02-15T07:41:47;9.07;;;6.10;;
13439;SDS011;6792;57.698;11.946;2024-02-15T07:44:17;9.67;;;6.10;;
13439;SDS011;6792;57.698;11.946;2024-02-15T07:46:46;9.60;;;6.20;;
13439;SDS011;6792;57.698;11.946;2024-02-15T07:49:17;10.23;;;6.60;;
13439;SDS011;6792;57.698;11.946;2024-02-15T07:51:46;10.53;;;7.37;;
13439;SDS011;6792;57.698;11.946;2024-02-15T07:54:17;9.77;;;6.27;;
13439;SDS011;6792;57.698;11.946;2024-02-15T07:56:48;9.93;;;6.87;;
13439;SDS011;6792;57.698;11.946;2024-02-15T07:59:18;8.53;;;6.27;;
13439;SDS011;6792;57.698;11.946;2024-02-15T08:01:47;10.20;;;6.63;;
13439;SDS011;6792;57.698;11.946;2024-02-15T08:04:17;10.53;;;6.50;;
13439;SDS011;6792;57.698;11.946;2024-02-15T08:06:55;11.00;;;6.93;;
13439;SDS011;6792;57.698;11.946;2024-02-15T08:09:25;9.17;;;6.40;;
13439;SDS011;6792;57.698;11.946;2024-02-15T08:11:54;12.47;;;7.27;;
13439;SDS011;6792;57.698;11.946;2024-02-15T08:14:29;11.23;;;6.80;;
13439;SDS011;6792;57.698;11.946;2024-02-15T08:17:06;10.73;;;6.90;;
13439;SDS011;6792;57.698;11.946;2024-02-15T08:26:16;10.03;;;6.87;;
13439;SDS011;6792;57.698;11.946;2024-02-15T08:28:48;8.70;;;6.33;;
13439;SDS011;6792;57.698;11.946;2024-02-15T08:34:51;9.27;;;5.97;;
13439;SDS011;6792;57.698;11.946;2024-02-15T08:37:49;8.63;;;5.97;;
13439;SDS011;6792;57.698;11.946;2024-02-15T08:40:30;9.03;;;6.03;;
13439;SDS011;6792;57.698;11.946;2024-02-15T08:48:51;9.43;;;6.10;;
13439;SDS011;6792;57.698;11.946;2024-02-15T08:51:34;9.00;;;6.27;;
13439;SDS011;6792;57.698;11.946;2024-02-15T09:00:56;8.20;;;5.87;;
13439;SDS011;6792;57.698;11.946;2024-02-15T09:14:05;8.60;;;6.07;;
13439;SDS011;6792;57.698;11.946;2024-02-15T09:16:38;8.80;;;5.93;;
13439;SDS011;6792;57.698;11.946;2024-02-15T09:50:12;7.00;;;4.90;;
13439;SDS011;6792;57.698;11.946;2024-02-15T09:52:44;8.70;;;5.53;;
13439;SDS011;6792;57.698;11.946;2024-02-15T09:55:16;7.03;;;5.33;;
13439;SDS011;6792;57.698;11.946;2024-02-15T09:57:46;7.30;;;5.43;;
13439;SDS011;6792;57.698;11.946;2024-02-15T10:00:16;7.97;;;5.17;;
13439;SDS011;6792;57.698;11.946;2024-02-15T10:02:47;6.40;;;4.90;;
13439;SDS011;6792;57.698;11.946;2024-02-15T10:05:19;7.80;;;5.73;;
13439;SDS011;6792;57.698;11.946;2024-02-15T10:07:49;6.40;;;4.90;;
13439;SDS011;6792;57.698;11.946;2024-02-15T10:10:23;6.97;;;5.20;;
13439;SDS011;6792;57.698;11.946;2024-02-15T10:13:28;6.23;;;4.77;;
13439;SDS011;6792;57.698;11.946;2024-02-15T10:16:16;7.07;;;5.00;;
13439;SDS011;6792;57.698;11.946;2024-02-15T10:18:59;7.70;;;5.07;;
13439;SDS011;6792;57.698;11.946;2024-02-15T10:21:45;7.47;;;5.27;;
13439;SDS011;6792;57.698;11.946;2024-02-15T10:24:14;7.17;;;5.13;;
13439;SDS011;6792;57.698;11.946;2024-02-15T10:26:46;6.63;;;4.90;;
13439;SDS011;6792;57.698;11.946;2024-02-15T10:29:18;6.13;;;4.60;;
13439;SDS011;6792;57.698;11.946;2024-02-15T10:31:54;7.10;;;5.20;;
13439;SDS011;6792;57.698;11.946;2024-02-15T10:34:25;7.00;;;4.87;;
13439;SDS011;6792;57.698;11.946;2024-02-15T10:36:55;6.70;;;4.90;;
13439;SDS011;6792;57.698;11.946;2024-02-15T10:39:25;7.40;;;4.60;;
13439;SDS011;6792;57.698;11.946;2024-02-15T10:41:55;10.03;;;5.23;;
13439;SDS011;6792;57.698;11.946;2024-02-15T10:44:24;6.03;;;4.73;;
13439;SDS011;6792;57.698;11.946;2024-02-15T10:46:54;6.33;;;5.00;;
13439;SDS011;6792;57.698;11.946;2024-02-15T10:49:23;5.70;;;4.20;;
13439;SDS011;6792;57.698;11.946;2024-02-15T10:51:55;6.50;;;4.17;;
13439;SDS011;6792;57.698;11.946;2024-02-15T10:57:31;4.67;;;3.60;;
13439;SDS011;6792;57.698;11.946;2024-02-15T11:00:02;4.90;;;4.17;;
13439;SDS011;6792;57.698;11.946;2024-02-15T11:02:36;5.00;;;3.90;;
13439;SDS011;6792;57.698;11.946;2024-02-15T11:05:09;5.77;;;4.23;;
13439;SDS011;6792;57.698;11.946;2024-02-15T11:07:41;4.03;;;3.50;;
13439;SDS011;6792;57.698;11.946;2024-02-15T11:10:10;5.90;;;4.33;;
13439;SDS011;6792;57.698;11.946;2024-02-15T11:12:41;6.10;;;3.97;;
13439;SDS011;6792;57.698;11.946;2024-02-15T11:15:14;5.07;;;3.43;;
13439;SDS011;6792;57.698;11.946;2024-02-15T11:18:05;4.93;;;3.70;;
13439;SDS011;6792;57.698;11.946;2024-02-15T11:20:46;4.10;;;3.67;;
13439;SDS011;6792;57.698;11.946;2024-02-15T11:23:27;4.77;;;3.67;;
13439;SDS011;6792;57.698;11.946;2024-02-15T11:25:57;5.00;;;3.60;;
13439;SDS011;6792;57.698;11.946;2024-02-15T11:28:35;4.50;;;3.77;;
13439;SDS011;6792;57.698;11.946;2024-02-15T11:31:52;4.73;;;3.40;;
13439;SDS011;6792;57.698;11.946;2024-02-15T11:33:53;4.07;;;3.63;;
13439;SDS011;6792;57.698;11.946;2024-02-15T11:36:30;5.20;;;3.50;;
13439;SDS011;6792;57.698;11.946;2024-02-15T11:38:59;4.73;;;3.77;;
13439;SDS011;6792;57.698;11.946;2024-02-15T11:41:29;4.67;;;3.53;;
13439;SDS011;6792;57.698;11.946;2024-02-15T11:43:59;4.70;;;3.47;;
13439;SDS011;6792;57.698;11.946;2024-02-15T11:46:28;4.33;;;3.63;;
13439;SDS011;6792;57.698;11.946;2024-02-15T11:48:58;3.87;;;3.23;;
13439;SDS011;6792;57.698;11.946;2024-02-15T11:51:30;3.70;;;3.33;;
13439;SDS011;6792;57.698;11.946;2024-02-15T11:54:03;3.30;;;3.00;;
13439;SDS011;6792;57.698;11.946;2024-02-15T11:56:33;4.47;;;3.23;;
13439;SDS011;6792;57.698;11.946;2024-02-15T11:59:23;3.27;;;2.77;;
13439;SDS011;6792;57.698;11.946;2024-02-15T12:02:02;3.40;;;3.07;;
13439;SDS011;6792;57.698;11.946;2024-02-15T12:04:49;4.20;;;3.43;;
13439;SDS011;6792;57.698;11.946;2024-02-15T12:07:36;3.97;;;3.30;;
13439;SDS011;6792;57.698;11.946;2024-02-15T12:10:23;3.80;;;3.10;;
13439;SDS011;6792;57.698;11.946;2024-02-15T12:13:09;4.20;;;2.97;;
13439;SDS011;6792;57.698;11.946;2024-02-15T12:15:58;3.83;;;3.43;;
13439;SDS011;6792;57.698;11.946;2024-02-15T12:18:45;4.00;;;3.40;;
13439;SDS011;6792;57.698;11.946;2024-02-15T12:21:18;3.30;;;2.90;;
13439;SDS011;6792;57.698;11.946;2024-02-15T12:23:50;4.30;;;3.40;;
13439;SDS011;6792;57.698;11.946;2024-02-15T12:26:19;4.10;;;3.13;;
13439;SDS011;6792;57.698;11.946;2024-02-15T12:28:51;4.20;;;3.27;;
13439;SDS011;6792;57.698;11.946;2024-02-15T12:31:21;3.27;;;2.97;;
13439;SDS011;6792;57.698;11.946;2024-02-15T12:34:01;4.40;;;3.37;;
13439;SDS011;6792;57.698;11.946;2024-02-15T12:36:32;3.23;;;2.90;;
13439;SDS011;6792;57.698;11.946;2024-02-15T12:39:04;3.20;;;2.40;;
13439;SDS011;6792;57.698;11.946;2024-02-15T12:41:38;4.00;;;3.07;;
13439;SDS011;6792;57.698;11.946;2024-02-15T12:44:08;4.83;;;3.23;;
13439;SDS011;6792;57.698;11.946;2024-02-15T12:46:37;3.30;;;2.90;;
13439;SDS011;6792;57.698;11.946;2024-02-15T12:49:08;2.63;;;2.43;;
13439;SDS011;6792;57.698;11.946;2024-02-15T12:51:40;3.37;;;3.07;;
13439;SDS011;6792;57.698;11.946;2024-02-15T12:54:22;3.10;;;2.80;;
13439;SDS011;6792;57.698;11.946;2024-02-15T12:56:51;3.20;;;2.53;;
13439;SDS011;6792;57.698;11.946;2024-02-15T12:59:23;3.33;;;3.03;;
13439;SDS011;6792;57.698;11.946;2024-02-15T13:01:52;3.67;;;3.10;;
13439;SDS011;6792;57.698;11.946;2024-02-15T13:04:22;3.37;;;2.97;;
13439;SDS011;6792;57.698;11.946;2024-02-15T13:06:52;3.20;;;2.90;;
13439;SDS011;6792;57.698;11.946;2024-02-15T13:09:21;2.70;;;2.50;;
13439;SDS011;6792;57.698;11.946;2024-02-15T13:11:50;2.60;;;2.40;;
13439;SDS011;6792;57.698;11.946;2024-02-15T13:14:20;2.53;;;2.33;;
13439;SDS011;6792;57.698;11.946;2024-02-15T13:16:49;2.93;;;2.63;;
13439;SDS011;6792;57.698;11.946;2024-02-15T13:19:18;3.20;;;2.90;;
13439;SDS011;6792;57.698;11.946;2024-02-15T13:21:47;3.03;;;2.73;;
13439;SDS011;6792;57.698;11.946;2024-02-15T13:24:18;3.00;;;2.70;;
13439;SDS011;6792;57.698;11.946;2024-02-15T13:26:48;2.93;;;2.67;;
13439;SDS011;6792;57.698;11.946;2024-02-15T13:29:17;2.90;;;2.60;;
13439;SDS011;6792;57.698;11.946;2024-02-15T13:31:47;3.13;;;2.43;;
13439;SDS011;6792;57.698;11.946;2024-02-15T13:34:17;4.53;;;2.67;;
13439;SDS011;6792;57.698;11.946;2024-02-15T13:36:47;2.63;;;2.43;;
13439;SDS011;6792;57.698;11.946;2024-02-15T13:39:17;2.23;;;2.03;;
13439;SDS011;6792;57.698;11.946;2024-02-15T13:41:48;2.57;;;2.37;;
13439;SDS011;6792;57.698;11.946;2024-02-15T13:44:17;4.30;;;2.67;;
13439;SDS011;6792;57.698;11.946;2024-02-15T13:46:46;2.47;;;2.27;;
13439;SDS011;6792;57.698;11.946;2024-02-15T13:49:16;2.50;;;2.03;;
13439;SDS011;6792;57.698;11.946;2024-02-15T13:51:45;2.20;;;2.03;;
13439;SDS011;6792;57.698;11.946;2024-02-15T13:54:14;2.50;;;2.30;;
13439;SDS011;6792;57.698;11.946;2024-02-15T13:56:44;2.73;;;2.53;;
13439;SDS011;6792;57.698;11.946;2024-02-15T13:59:13;2.63;;;2.43;;
13439;SDS011;6792;57.698;11.946;2024-02-15T14:01:42;2.43;;;2.23;;
13439;SDS011;6792;57.698;11.946;2024-02-15T14:04:12;2.83;;;2.57;;
13439;SDS011;6792;57.698;11.946;2024-02-15T14:06:42;2.50;;;2.30;;
13439;SDS011;6792;57.698;11.946;2024-02-15T14:09:11;2.03;;;1.87;;
13439;SDS011;6792;57.698;11.946;2024-02-15T14:11:40;2.13;;;1.90;;
13439;SDS011;6792;57.698;11.946;2024-02-15T14:14:10;3.97;;;2.23;;
13439;SDS011;6792;57.698;11.946;2024-02-15T14:16:38;1.87;;;1.77;;
13439;SDS011;6792;57.698;11.946;2024-02-15T14:19:07;2.37;;;2.17;;
13439;SDS011;6792;57.698;11.946;2024-02-15T14:21:38;2.10;;;1.90;;
13439;SDS011;6792;57.698;11.946;2024-02-15T14:24:09;2.47;;;2.13;;
13439;SDS011;6792;57.698;11.946;2024-02-15T14:26:38;2.17;;;1.97;;
13439;SDS011;6792;57.698;11.946;2024-02-15T14:29:07;2.10;;;2.00;;
13439;SDS011;6792;57.698;11.946;2024-02-15T14:31:37;1.77;;;1.63;;
13439;SDS011;6792;57.698;11.946;2024-02-15T14:34:23;1.90;;;1.80;;
13439;SDS011;6792;57.698;11.946;2024-02-15T14:36:52;2.20;;;1.87;;
13439;SDS011;6792;57.698;11.946;2024-02-15T14:39:21;1.80;;;1.70;;
13439;SDS011;6792;57.698;11.946;2024-02-15T14:41:51;1.93;;;1.83;;
13439;SDS011;6792;57.698;11.946;2024-02-15T14:44:20;1.70;;;1.60;;
13439;SDS011;6792;57.698;11.946;2024-02-15T14:46:49;2.40;;;1.90;;
13439;SDS011;6792;57.698;11.946;2024-02-15T14:49:20;1.77;;;1.60;;
13439;SDS011;6792;57.698;11.946;2024-02-15T14:51:50;2.50;;;1.60;;
13439;SDS011;6792;57.698;11.946;2024-02-15T14:54:19;1.57;;;1.37;;
13439;SDS011;6792;57.698;11.946;2024-02-15T14:56:48;3.33;;;1.83;;
13439;SDS011;6792;57.698;11.946;2024-02-15T14:59:17;1.90;;;1.80;;
13439;SDS011;6792;57.698;11.946;2024-02-15T15:01:46;2.03;;;1.90;;
13439;SDS011;6792;57.698;11.946;2024-02-15T15:04:16;1.87;;;1.77;;
13439;SDS011;6792;57.698;11.946;2024-02-15T15:06:45;1.97;;;1.87;;
13439;SDS011;6792;57.698;11.946;2024-02-15T15:12:30;1.67;;;1.50;;
13439;SDS011;6792;57.698;11.946;2024-02-15T15:15:07;1.60;;;1.50;;
13439;SDS011;6792;57.698;11.946;2024-02-15T15:17:39;1.40;;;1.30;;
13439;SDS011;6792;57.698;11.946;2024-02-15T15:20:10;1.30;;;1.20;;
13439;SDS011;6792;57.698;11.946;2024-02-15T15:22:40;1.40;;;1.30;;
13439;SDS011;6792;57.698;11.946;2024-02-15T15:25:09;1.70;;;1.60;;
13439;SDS011;6792;57.698;11.946;2024-02-15T15:27:39;1.47;;;1.37;;
13439;SDS011;6792;57.698;11.946;2024-02-15T15:30:09;1.23;;;1.13;;
13439;SDS011;6792;57.698;11.946;2024-02-15T15:32:40;1.80;;;1.70;;
13439;SDS011;6792;57.698;11.946;2024-02-15T15:35:10;1.67;;;1.57;;
13439;SDS011;6792;57.698;11.946;2024-02-15T15:37:40;1.47;;;1.33;;
13439;SDS011;6792;57.698;11.946;2024-02-15T15:40:11;1.40;;;1.30;;
13439;SDS011;6792;57.698;11.946;2024-02-15T15:42:40;2.10;;;1.40;;
13439;SDS011;6792;57.698;11.946;2024-02-15T15:45:12;1.27;;;1.17;;
13439;SDS011;6792;57.698;11.946;2024-02-15T15:47:41;1.40;;;1.30;;
13439;SDS011;6792;57.698;11.946;2024-02-15T15:50:22;2.00;;;1.57;;
13439;SDS011;6792;57.698;11.946;2024-02-15T15:52:51;2.17;;;1.50;;
13439;SDS011;6792;57.698;11.946;2024-02-15T15:55:20;1.47;;;1.30;;
13439;SDS011;6792;57.698;11.946;2024-02-15T15:57:50;2.00;;;1.70;;
13439;SDS011;6792;57.698;11.946;2024-02-15T16:00:19;1.90;;;1.70;;
13439;SDS011;6792;57.698;11.946;2024-02-15T16:02:49;2.13;;;1.97;;
13439;SDS011;6792;57.698;11.946;2024-02-15T16:05:18;1.97;;;1.73;;
13439;SDS011;6792;57.698;11.946;2024-02-15T16:07:48;3.37;;;2.30;;
13439;SDS011;6792;57.698;11.946;2024-02-15T16:10:18;3.07;;;2.40;;
13439;SDS011;6792;57.698;11.946;2024-02-15T16:12:49;2.57;;;1.53;;
13439;SDS011;6792;57.698;11.946;2024-02-15T16:15:18;2.20;;;1.63;;
13439;SDS011;6792;57.698;11.946;2024-02-15T16:17:47;1.70;;;1.60;;
13439;SDS011;6792;57.698;11.946;2024-02-15T16:20:16;1.80;;;1.70;;
13439;SDS011;6792;57.698;11.946;2024-02-15T16:22:45;1.50;;;1.40;;
13439;SDS011;6792;57.698;11.946;2024-02-15T16:25:15;1.87;;;1.77;;
13439;SDS011;6792;57.698;11.946;2024-02-15T16:27:45;2.00;;;1.87;;
13439;SDS011;6792;57.698;11.946;2024-02-15T16:30:14;2.30;;;1.60;;
13439;SDS011;6792;57.698;11.946;2024-02-15T16:32:44;2.03;;;1.87;;
13439;SDS011;6792;57.698;11.946;2024-02-15T16:35:13;1.67;;;1.57;;
13439;SDS011;6792;57.698;11.946;2024-02-15T16:37:45;2.00;;;1.80;;
13439;SDS011;6792;57.698;11.946;2024-02-15T16:40:14;2.43;;;1.70;;
13439;SDS011;6792;57.698;11.946;2024-02-15T16:42:43;1.73;;;1.63;;
13439;SDS011;6792;57.698;11.946;2024-02-15T16:45:14;3.07;;;1.77;;
13439;SDS011;6792;57.698;11.946;2024-02-15T16:47:45;1.70;;;1.60;;
13439;SDS011;6792;57.698;11.946;2024-02-15T16:50:22;1.70;;;1.60;;
13439;SDS011;6792;57.698;11.946;2024-02-15T16:52:51;2.67;;;1.87;;
13439;SDS011;6792;57.698;11.946;2024-02-15T16:55:20;1.97;;;1.70;;
13439;SDS011;6792;57.698;11.946;2024-02-15T16:57:51;1.60;;;1.50;;
13439;SDS011;6792;57.698;11.946;2024-02-15T17:00:22;1.60;;;1.50;;
13439;SDS011;6792;57.698;11.946;2024-02-15T17:02:51;1.50;;;1.40;;
13439;SDS011;6792;57.698;11.946;2024-02-15T17:05:20;1.53;;;1.43;;
13439;SDS011;6792;57.698;11.946;2024-02-15T17:07:50;1.67;;;1.57;;
13439;SDS011;6792;57.698;11.946;2024-02-15T17:10:20;3.30;;;1.73;;
13439;SDS011;6792;57.698;11.946;2024-02-15T17:12:49;1.70;;;1.50;;
13439;SDS011;6792;57.698;11.946;2024-02-15T17:15:19;2.20;;;1.60;;
13439;SDS011;6792;57.698;11.946;2024-02-15T17:17:50;2.70;;;1.90;;
13439;SDS011;6792;57.698;11.946;2024-02-15T17:20:20;1.83;;;1.70;;
13439;SDS011;6792;57.698;11.946;2024-02-15T17:22:49;1.93;;;1.60;;
13439;SDS011;6792;57.698;11.946;2024-02-15T17:25:18;1.67;;;1.57;;
13439;SDS011;6792;57.698;11.946;2024-02-15T17:27:48;2.87;;;1.90;;
13439;SDS011;6792;57.698;11.946;2024-02-15T17:30:18;3.27;;;1.83;;
13439;SDS011;6792;57.698;11.946;2024-02-15T17:32:48;2.37;;;1.67;;
13439;SDS011;6792;57.698;11.946;2024-02-15T17:35:17;1.80;;;1.70;;
13439;SDS011;6792;57.698;11.946;2024-02-15T17:37:47;1.40;;;1.30;;
13439;SDS011;6792;57.698;11.946;2024-02-15T17:40:17;1.20;;;1.10;;
13439;SDS011;6792;57.698;11.946;2024-02-15T17:42:47;2.03;;;1.50;;
13439;SDS011;6792;57.698;11.946;2024-02-15T17:45:18;1.97;;;1.40;;
13439;SDS011;6792;57.698;11.946;2024-02-15T17:47:51;1.43;;;1.30;;
13439;SDS011;6792;57.698;11.946;2024-02-15T17:50:20;2.10;;;1.33;;